sensor_id;sensor_type;location;lat;lon;timestamp;noise_LAeq;noise_LA_min;noise_LA_max;noise_LA01;noise_LA95
69616;Laerm;56822;52.516;4.708;2023-06-24T00:00:05;51.04;46.63;55.77;;
69616;Laerm;56822;52.516;4.708;2023-06-24T00:00:17;47.84;40.86;54.33;;
69616;Laerm;56822;52.516;4.708;2023-06-24T00:00:29;39.56;34.29;44.82;;
69616;Laerm;56822;52.516;4.708;2023-06-24T00:00:39;34.86;32.02;36.93;;
69616;Laerm;56822;52.516;4.708;2023-06-24T00:00:49;36.32;32.77;40.51;;
69616;Laerm;56822;52.516;4.708;2023-06-24T00:01:02;37.02;34.26;39.56;;
69616;Laerm;56822;52.516;4.708;2023-06-24T00:01:12;36.66;34.10;38.64;;
69616;Laerm;56822;52.516;4.708;2023-06-24T00:01:23;36.45;34.29;39.64;;
69616;Laerm;56822;52.516;4.708;2023-06-24T00:01:33;37.60;34.62;40.38;;
69616;Laerm;56822;52.516;4.708;2023-06-24T00:01:44;35.73;33.35;38.39;;
69616;Laerm;56822;52.516;4.708;2023-06-24T00:01:54;33.72;31.37;36.10;;
69616;Laerm;56822;52.516;4.708;2023-06-24T00:02:05;35.22;33.01;39.32;;
69616;Laerm;56822;52.516;4.708;2023-06-24T00:02:16;34.97;31.52;39.98;;
69616;Laerm;56822;52.516;4.708;2023-06-24T00:02:26;32.72;30.08;34.66;;
69616;Laerm;56822;52.516;4.708;2023-06-24T00:02:36;35.61;32.21;40.23;;
69616;Laerm;56822;52.516;4.708;2023-06-24T00:02:47;36.31;33.81;40.18;;
69616;Laerm;56822;52.516;4.708;2023-06-24T00:02:57;36.29;33.66;39.21;;
69616;Laerm;56822;52.516;4.708;2023-06-24T00:03:11;34.87;32.87;37.21;;
69616;Laerm;56822;52.516;4.708;2023-06-24T00:03:27;34.79;31.77;37.92;;
69616;Laerm;56822;52.516;4.708;2023-06-24T00:03:37;36.02;33.13;39.90;;
69616;Laerm;56822;52.516;4.708;2023-06-24T00:03:48;36.52;33.20;39.98;;
69616;Laerm;56822;52.516;4.708;2023-06-24T00:03:58;36.17;33.89;38.81;;
69616;Laerm;56822;52.516;4.708;2023-06-24T00:04:08;34.94;33.12;37.88;;
69616;Laerm;56822;52.516;4.708;2023-06-24T00:04:19;35.74;33.42;39.24;;
69616;Laerm;56822;52.516;4.708;2023-06-24T00:04:30;37.15;34.50;40.77;;
69616;Laerm;56822;52.516;4.708;2023-06-24T00:04:41;35.39;33.20;40.54;;
69616;Laerm;56822;52.516;4.708;2023-06-24T00:04:51;37.46;32.69;46.66;;
69616;Laerm;56822;52.516;4.708;2023-06-24T00:05:04;39.92;33.97;47.24;;
69616;Laerm;56822;52.516;4.708;2023-06-24T00:05:15;41.33;33.71;48.84;;
69616;Laerm;56822;52.516;4.708;2023-06-24T00:05:26;37.85;33.07;45.22;;
69616;Laerm;56822;52.516;4.708;2023-06-24T00:05:36;36.87;33.46;42.85;;
69616;Laerm;56822;52.516;4.708;2023-06-24T00:05:48;41.14;34.16;47.00;;
69616;Laerm;56822;52.516;4.708;2023-06-24T00:05:59;40.46;35.52;46.26;;
69616;Laerm;56822;52.516;4.708;2023-06-24T00:06:13;46.12;38.89;51.53;;
69616;Laerm;56822;52.516;4.708;2023-06-24T00:06:28;51.16;45.18;55.34;;
69616;Laerm;56822;52.516;4.708;2023-06-24T00:06:38;50.46;44.78;54.54;;
69616;Laerm;56822;52.516;4.708;2023-06-24T00:06:49;47.06;38.12;52.48;;
69616;Laerm;56822;52.516;4.708;2023-06-24T00:07:02;43.62;37.26;51.22;;
69616;Laerm;56822;52.516;4.708;2023-06-24T00:07:12;39.29;35.72;43.60;;
69616;Laerm;56822;52.516;4.708;2023-06-24T00:07:23;37.98;34.58;42.30;;
69616;Laerm;56822;52.516;4.708;2023-06-24T00:07:33;37.92;35.62;40.81;;
69616;Laerm;56822;52.516;4.708;2023-06-24T00:07:46;38.13;34.79;52.06;;
69616;Laerm;56822;52.516;4.708;2023-06-24T00:07:57;37.63;35.04;41.75;;
69616;Laerm;56822;52.516;4.708;2023-06-24T00:08:07;38.14;35.40;42.78;;
69616;Laerm;56822;52.516;4.708;2023-06-24T00:08:18;48.14;36.20;65.21;;
69616;Laerm;56822;52.516;4.708;2023-06-24T00:08:32;37.93;35.68;40.84;;
69616;Laerm;56822;52.516;4.708;2023-06-24T00:08:46;36.75;33.96;40.74;;
69616;Laerm;56822;52.516;4.708;2023-06-24T00:08:57;36.59;34.11;39.22;;
69616;Laerm;56822;52.516;4.708;2023-06-24T00:09:10;43.03;33.75;50.68;;
69616;Laerm;56822;52.516;4.708;2023-06-24T00:09:20;42.85;34.67;51.74;;
69616;Laerm;56822;52.516;4.708;2023-06-24T00:09:30;38.17;34.58;43.54;;
69616;Laerm;56822;52.516;4.708;2023-06-24T00:09:41;42.04;35.84;48.31;;
69616;Laerm;56822;52.516;4.708;2023-06-24T00:09:51;44.24;35.92;50.07;;
69616;Laerm;56822;52.516;4.708;2023-06-24T00:10:01;39.71;34.56;47.60;;
69616;Laerm;56822;52.516;4.708;2023-06-24T00:10:14;38.45;34.97;41.78;;
69616;Laerm;56822;52.516;4.708;2023-06-24T00:10:24;38.44;35.51;42.22;;
69616;Laerm;56822;52.516;4.708;2023-06-24T00:10:35;38.43;35.09;41.69;;
69616;Laerm;56822;52.516;4.708;2023-06-24T00:10:46;40.83;34.67;47.79;;
69616;Laerm;56822;52.516;4.708;2023-06-24T00:10:56;42.92;33.66;50.17;;
69616;Laerm;56822;52.516;4.708;2023-06-24T00:11:06;42.30;32.25;49.34;;
69616;Laerm;56822;52.516;4.708;2023-06-24T00:11:17;40.85;32.55;49.31;;
69616;Laerm;56822;52.516;4.708;2023-06-24T00:11:28;37.30;34.00;41.52;;
69616;Laerm;56822;52.516;4.708;2023-06-24T00:11:39;40.36;35.90;46.14;;
69616;Laerm;56822;52.516;4.708;2023-06-24T00:11:49;41.98;35.80;49.05;;
69616;Laerm;56822;52.516;4.708;2023-06-24T00:12:00;42.15;36.75;49.59;;
69616;Laerm;56822;52.516;4.708;2023-06-24T00:12:10;41.37;37.72;46.06;;
69616;Laerm;56822;52.516;4.708;2023-06-24T00:12:20;42.86;37.90;48.84;;
69616;Laerm;56822;52.516;4.708;2023-06-24T00:12:30;44.42;37.42;50.94;;
69616;Laerm;56822;52.516;4.708;2023-06-24T00:12:43;44.73;36.56;49.29;;
69616;Laerm;56822;52.516;4.708;2023-06-24T00:12:53;51.53;36.84;55.39;;
69616;Laerm;56822;52.516;4.708;2023-06-24T00:13:03;53.01;48.58;55.51;;
69616;Laerm;56822;52.516;4.708;2023-06-24T00:13:16;51.64;45.48;55.96;;
69616;Laerm;56822;52.516;4.708;2023-06-24T00:13:27;59.55;50.78;64.45;;
69616;Laerm;56822;52.516;4.708;2023-06-24T00:13:41;63.07;57.98;65.51;;
69616;Laerm;56822;52.516;4.708;2023-06-24T00:13:52;60.99;53.39;65.92;;
69616;Laerm;56822;52.516;4.708;2023-06-24T00:14:02;55.80;50.23;59.80;;
69616;Laerm;56822;52.516;4.708;2023-06-24T00:14:12;50.69;46.58;54.10;;
69616;Laerm;56822;52.516;4.708;2023-06-24T00:14:25;49.08;45.72;50.89;;
69616;Laerm;56822;52.516;4.708;2023-06-24T00:14:36;46.51;39.55;50.63;;
69616;Laerm;56822;52.516;4.708;2023-06-24T00:14:47;43.54;37.79;48.10;;
69616;Laerm;56822;52.516;4.708;2023-06-24T00:14:57;42.55;37.63;48.54;;
69616;Laerm;56822;52.516;4.708;2023-06-24T00:15:08;41.15;36.60;46.40;;
69616;Laerm;56822;52.516;4.708;2023-06-24T00:15:22;41.31;35.83;46.56;;
69616;Laerm;56822;52.516;4.708;2023-06-24T00:15:32;41.76;36.01;47.56;;
69616;Laerm;56822;52.516;4.708;2023-06-24T00:15:42;40.77;35.52;45.95;;
69616;Laerm;56822;52.516;4.708;2023-06-24T00:15:52;41.74;35.46;47.57;;
69616;Laerm;56822;52.516;4.708;2023-06-24T00:16:03;41.60;34.98;47.22;;
69616;Laerm;56822;52.516;4.708;2023-06-24T00:16:13;42.52;34.01;49.53;;
69616;Laerm;56822;52.516;4.708;2023-06-24T00:16:23;43.24;33.79;49.00;;
69616;Laerm;56822;52.516;4.708;2023-06-24T00:16:37;36.90;33.10;40.85;;
69616;Laerm;56822;52.516;4.708;2023-06-24T00:16:47;38.85;35.62;41.84;;
69616;Laerm;56822;52.516;4.708;2023-06-24T00:17:01;38.68;35.62;41.47;;
69616;Laerm;56822;52.516;4.708;2023-06-24T00:17:11;39.67;36.77;42.37;;
69616;Laerm;56822;52.516;4.708;2023-06-24T00:17:21;39.87;35.61;44.73;;
69616;Laerm;56822;52.516;4.708;2023-06-24T00:17:32;42.46;35.35;49.45;;
69616;Laerm;56822;52.516;4.708;2023-06-24T00:17:42;42.42;36.25;49.11;;
69616;Laerm;56822;52.516;4.708;2023-06-24T00:17:52;38.86;35.87;42.85;;
69616;Laerm;56822;52.516;4.708;2023-06-24T00:18:02;37.67;34.86;41.53;;
69616;Laerm;56822;52.516;4.708;2023-06-24T00:18:16;39.87;35.71;42.87;;
69616;Laerm;56822;52.516;4.708;2023-06-24T00:18:26;40.92;35.36;48.22;;
69616;Laerm;56822;52.516;4.708;2023-06-24T00:18:39;43.48;37.17;49.75;;
69616;Laerm;56822;52.516;4.708;2023-06-24T00:18:51;42.93;39.28;45.80;;
69616;Laerm;56822;52.516;4.708;2023-06-24T00:19:02;41.05;35.96;46.47;;
69616;Laerm;56822;52.516;4.708;2023-06-24T00:19:13;41.24;34.28;46.90;;
69616;Laerm;56822;52.516;4.708;2023-06-24T00:19:24;41.22;34.02;47.51;;
69616;Laerm;56822;52.516;4.708;2023-06-24T00:19:34;42.91;32.56;52.46;;
69616;Laerm;56822;52.516;4.708;2023-06-24T00:19:45;35.17;32.15;40.57;;
69616;Laerm;56822;52.516;4.708;2023-06-24T00:19:55;43.07;33.45;50.14;;
69616;Laerm;56822;52.516;4.708;2023-06-24T00:20:05;43.37;34.86;52.78;;
69616;Laerm;56822;52.516;4.708;2023-06-24T00:20:20;37.60;34.32;42.89;;
69616;Laerm;56822;52.516;4.708;2023-06-24T00:20:30;37.87;34.99;41.07;;
69616;Laerm;56822;52.516;4.708;2023-06-24T00:20:41;35.03;32.24;37.70;;
69616;Laerm;56822;52.516;4.708;2023-06-24T00:20:53;35.37;32.65;38.10;;
69616;Laerm;56822;52.516;4.708;2023-06-24T00:21:03;37.40;34.63;39.90;;
69616;Laerm;56822;52.516;4.708;2023-06-24T00:21:14;38.46;35.45;41.99;;
69616;Laerm;56822;52.516;4.708;2023-06-24T00:21:27;38.76;35.48;42.17;;
69616;Laerm;56822;52.516;4.708;2023-06-24T00:21:41;39.25;36.09;43.24;;
69616;Laerm;56822;52.516;4.708;2023-06-24T00:21:52;39.04;35.85;41.91;;
69616;Laerm;56822;52.516;4.708;2023-06-24T00:22:02;41.52;37.53;45.60;;
69616;Laerm;56822;52.516;4.708;2023-06-24T00:22:13;41.90;37.08;46.33;;
69616;Laerm;56822;52.516;4.708;2023-06-24T00:22:24;41.51;37.37;46.64;;
69616;Laerm;56822;52.516;4.708;2023-06-24T00:22:34;48.92;43.31;52.87;;
69616;Laerm;56822;52.516;4.708;2023-06-24T00:22:44;50.86;47.12;56.33;;
69616;Laerm;56822;52.516;4.708;2023-06-24T00:22:58;49.55;43.23;56.61;;
69616;Laerm;56822;52.516;4.708;2023-06-24T00:23:08;46.93;41.11;52.10;;
69616;Laerm;56822;52.516;4.708;2023-06-24T00:23:22;42.61;37.40;47.43;;
69616;Laerm;56822;52.516;4.708;2023-06-24T00:23:35;41.27;36.47;47.30;;
69616;Laerm;56822;52.516;4.708;2023-06-24T00:23:45;41.57;36.62;47.96;;
69616;Laerm;56822;52.516;4.708;2023-06-24T00:23:59;40.47;33.92;46.36;;
69616;Laerm;56822;52.516;4.708;2023-06-24T00:24:14;40.95;33.59;49.79;;
69616;Laerm;56822;52.516;4.708;2023-06-24T00:24:25;38.20;32.15;46.05;;
69616;Laerm;56822;52.516;4.708;2023-06-24T00:24:35;34.92;30.58;39.84;;
69616;Laerm;56822;52.516;4.708;2023-06-24T00:24:46;36.27;31.36;42.71;;
69616;Laerm;56822;52.516;4.708;2023-06-24T00:24:56;38.15;33.27;43.44;;
69616;Laerm;56822;52.516;4.708;2023-06-24T00:25:07;41.43;33.55;50.04;;
69616;Laerm;56822;52.516;4.708;2023-06-24T00:25:17;43.58;33.47;49.44;;
69616;Laerm;56822;52.516;4.708;2023-06-24T00:25:29;38.66;33.28;45.50;;
69616;Laerm;56822;52.516;4.708;2023-06-24T00:25:39;34.25;32.20;37.76;;
69616;Laerm;56822;52.516;4.708;2023-06-24T00:25:49;36.47;33.93;38.67;;
69616;Laerm;56822;52.516;4.708;2023-06-24T00:26:00;35.01;32.38;37.42;;
69616;Laerm;56822;52.516;4.708;2023-06-24T00:26:10;36.94;33.85;39.35;;
69616;Laerm;56822;52.516;4.708;2023-06-24T00:26:21;36.25;33.49;40.39;;
69616;Laerm;56822;52.516;4.708;2023-06-24T00:26:31;36.98;34.03;41.48;;
69616;Laerm;56822;52.516;4.708;2023-06-24T00:26:42;35.87;32.82;38.40;;
69616;Laerm;56822;52.516;4.708;2023-06-24T00:26:52;34.38;32.37;39.39;;
69616;Laerm;56822;52.516;4.708;2023-06-24T00:27:03;33.58;31.24;36.05;;
69616;Laerm;56822;52.516;4.708;2023-06-24T00:27:13;34.22;31.41;37.33;;
69616;Laerm;56822;52.516;4.708;2023-06-24T00:27:23;38.08;32.50;45.76;;
69616;Laerm;56822;52.516;4.708;2023-06-24T00:27:34;43.96;33.42;49.89;;
69616;Laerm;56822;52.516;4.708;2023-06-24T00:27:44;37.62;32.27;47.44;;
69616;Laerm;56822;52.516;4.708;2023-06-24T00:27:54;33.02;31.15;36.28;;
69616;Laerm;56822;52.516;4.708;2023-06-24T00:28:04;35.54;31.94;39.54;;
69616;Laerm;56822;52.516;4.708;2023-06-24T00:28:15;35.59;32.81;39.34;;
69616;Laerm;56822;52.516;4.708;2023-06-24T00:28:25;35.74;33.94;39.49;;
69616;Laerm;56822;52.516;4.708;2023-06-24T00:28:35;36.97;34.64;40.17;;
69616;Laerm;56822;52.516;4.708;2023-06-24T00:28:46;35.91;33.00;39.20;;
69616;Laerm;56822;52.516;4.708;2023-06-24T00:28:56;35.58;32.58;38.52;;
69616;Laerm;56822;52.516;4.708;2023-06-24T00:29:06;36.18;33.77;39.75;;
69616;Laerm;56822;52.516;4.708;2023-06-24T00:29:17;36.80;33.58;40.05;;
69616;Laerm;56822;52.516;4.708;2023-06-24T00:29:27;36.68;33.41;39.55;;
69616;Laerm;56822;52.516;4.708;2023-06-24T00:29:37;39.02;36.15;41.69;;
69616;Laerm;56822;52.516;4.708;2023-06-24T00:29:47;36.68;33.38;39.59;;
69616;Laerm;56822;52.516;4.708;2023-06-24T00:29:58;37.24;34.30;39.72;;
69616;Laerm;56822;52.516;4.708;2023-06-24T00:30:08;36.61;33.63;39.11;;
69616;Laerm;56822;52.516;4.708;2023-06-24T00:30:18;35.11;32.83;37.17;;
69616;Laerm;56822;52.516;4.708;2023-06-24T00:30:29;35.42;31.46;38.88;;
69616;Laerm;56822;52.516;4.708;2023-06-24T00:30:39;35.00;31.61;39.44;;
69616;Laerm;56822;52.516;4.708;2023-06-24T00:30:49;35.65;33.43;38.86;;
69616;Laerm;56822;52.516;4.708;2023-06-24T00:30:59;34.92;32.73;37.75;;
69616;Laerm;56822;52.516;4.708;2023-06-24T00:31:12;35.24;33.09;37.12;;
69616;Laerm;56822;52.516;4.708;2023-06-24T00:31:22;36.14;34.66;38.28;;
69616;Laerm;56822;52.516;4.708;2023-06-24T00:31:33;36.41;33.80;38.96;;
69616;Laerm;56822;52.516;4.708;2023-06-24T00:31:43;34.82;32.68;40.32;;
69616;Laerm;56822;52.516;4.708;2023-06-24T00:31:54;33.94;31.85;36.57;;
69616;Laerm;56822;52.516;4.708;2023-06-24T00:32:04;34.75;31.59;39.81;;
69616;Laerm;56822;52.516;4.708;2023-06-24T00:32:15;34.68;31.73;39.79;;
69616;Laerm;56822;52.516;4.708;2023-06-24T00:32:25;35.97;33.08;40.13;;
69616;Laerm;56822;52.516;4.708;2023-06-24T00:32:35;34.14;31.69;38.04;;
69616;Laerm;56822;52.516;4.708;2023-06-24T00:32:45;33.31;30.90;36.17;;
69616;Laerm;56822;52.516;4.708;2023-06-24T00:32:56;33.51;31.36;37.93;;
69616;Laerm;56822;52.516;4.708;2023-06-24T00:33:06;35.41;31.55;42.39;;
69616;Laerm;56822;52.516;4.708;2023-06-24T00:33:19;43.49;33.56;50.13;;
69616;Laerm;56822;52.516;4.708;2023-06-24T00:33:30;38.19;32.24;48.03;;
69616;Laerm;56822;52.516;4.708;2023-06-24T00:33:46;36.33;32.87;40.67;;
69616;Laerm;56822;52.516;4.708;2023-06-24T00:33:56;34.78;32.04;40.68;;
69616;Laerm;56822;52.516;4.708;2023-06-24T00:34:07;35.94;30.66;44.70;;
69616;Laerm;56822;52.516;4.708;2023-06-24T00:34:17;34.34;30.49;42.90;;
69616;Laerm;56822;52.516;4.708;2023-06-24T00:34:30;32.35;29.75;35.35;;
69616;Laerm;56822;52.516;4.708;2023-06-24T00:34:40;31.91;29.86;36.99;;
69616;Laerm;56822;52.516;4.708;2023-06-24T00:34:53;33.12;30.65;40.86;;
69616;Laerm;56822;52.516;4.708;2023-06-24T00:35:08;35.81;32.03;39.17;;
69616;Laerm;56822;52.516;4.708;2023-06-24T00:35:18;33.30;30.64;36.73;;
69616;Laerm;56822;52.516;4.708;2023-06-24T00:35:28;35.12;31.11;39.33;;
69616;Laerm;56822;52.516;4.708;2023-06-24T00:35:41;36.18;32.18;41.20;;
69616;Laerm;56822;52.516;4.708;2023-06-24T00:35:53;37.91;33.03;43.46;;
69616;Laerm;56822;52.516;4.708;2023-06-24T00:36:03;40.78;33.14;47.04;;
69616;Laerm;56822;52.516;4.708;2023-06-24T00:36:13;44.92;34.58;50.01;;
69616;Laerm;56822;52.516;4.708;2023-06-24T00:36:24;43.58;37.03;50.19;;
69616;Laerm;56822;52.516;4.708;2023-06-24T00:36:34;37.10;33.82;42.20;;
69616;Laerm;56822;52.516;4.708;2023-06-24T00:36:46;34.95;33.06;37.99;;
69616;Laerm;56822;52.516;4.708;2023-06-24T00:36:57;36.41;33.96;40.47;;
69616;Laerm;56822;52.516;4.708;2023-06-24T00:37:07;35.84;33.25;38.90;;
69616;Laerm;56822;52.516;4.708;2023-06-24T00:37:17;36.98;33.84;40.26;;
69616;Laerm;56822;52.516;4.708;2023-06-24T00:37:27;36.12;33.08;40.27;;
69616;Laerm;56822;52.516;4.708;2023-06-24T00:37:38;37.56;33.91;42.23;;
69616;Laerm;56822;52.516;4.708;2023-06-24T00:37:48;35.68;33.33;41.29;;
69616;Laerm;56822;52.516;4.708;2023-06-24T00:37:59;37.38;34.82;42.49;;
69616;Laerm;56822;52.516;4.708;2023-06-24T00:38:09;35.84;32.63;38.98;;
69616;Laerm;56822;52.516;4.708;2023-06-24T00:38:20;34.61;31.68;39.36;;
69616;Laerm;56822;52.516;4.708;2023-06-24T00:38:30;34.11;31.75;40.99;;
69616;Laerm;56822;52.516;4.708;2023-06-24T00:38:42;33.56;31.05;37.63;;
69616;Laerm;56822;52.516;4.708;2023-06-24T00:38:52;35.74;32.86;40.14;;
69616;Laerm;56822;52.516;4.708;2023-06-24T00:39:03;35.10;32.80;37.63;;
69616;Laerm;56822;52.516;4.708;2023-06-24T00:39:13;34.81;32.02;37.03;;
69616;Laerm;56822;52.516;4.708;2023-06-24T00:39:23;34.13;31.57;36.85;;
69616;Laerm;56822;52.516;4.708;2023-06-24T00:39:34;33.61;30.41;37.68;;
69616;Laerm;56822;52.516;4.708;2023-06-24T00:39:44;34.31;31.84;37.92;;
69616;Laerm;56822;52.516;4.708;2023-06-24T00:39:54;34.60;31.42;39.46;;
69616;Laerm;56822;52.516;4.708;2023-06-24T00:40:05;34.49;32.03;37.18;;
69616;Laerm;56822;52.516;4.708;2023-06-24T00:40:15;35.26;32.84;38.28;;
69616;Laerm;56822;52.516;4.708;2023-06-24T00:40:27;36.09;33.07;39.44;;
69616;Laerm;56822;52.516;4.708;2023-06-24T00:40:38;34.98;32.41;39.11;;
69616;Laerm;56822;52.516;4.708;2023-06-24T00:40:49;34.89;32.58;36.82;;
69616;Laerm;56822;52.516;4.708;2023-06-24T00:40:59;34.88;32.81;38.10;;
69616;Laerm;56822;52.516;4.708;2023-06-24T00:41:09;34.23;32.41;38.26;;
69616;Laerm;56822;52.516;4.708;2023-06-24T00:41:20;35.98;33.18;39.10;;
69616;Laerm;56822;52.516;4.708;2023-06-24T00:41:31;35.62;32.67;38.72;;
69616;Laerm;56822;52.516;4.708;2023-06-24T00:41:41;36.18;33.57;38.36;;
69616;Laerm;56822;52.516;4.708;2023-06-24T00:41:52;38.52;35.33;41.81;;
69616;Laerm;56822;52.516;4.708;2023-06-24T00:42:03;39.59;36.71;43.69;;
69616;Laerm;56822;52.516;4.708;2023-06-24T00:42:13;40.64;36.49;43.49;;
69616;Laerm;56822;52.516;4.708;2023-06-24T00:42:23;39.50;35.06;43.23;;
69616;Laerm;56822;52.516;4.708;2023-06-24T00:42:34;42.06;38.32;47.85;;
69616;Laerm;56822;52.516;4.708;2023-06-24T00:42:44;50.01;44.53;54.29;;
69616;Laerm;56822;52.516;4.708;2023-06-24T00:42:55;52.62;49.07;55.69;;
69616;Laerm;56822;52.516;4.708;2023-06-24T00:43:06;48.73;43.78;53.64;;
69616;Laerm;56822;52.516;4.708;2023-06-24T00:43:17;48.34;40.59;52.93;;
69616;Laerm;56822;52.516;4.708;2023-06-24T00:43:28;40.34;36.31;44.53;;
69616;Laerm;56822;52.516;4.708;2023-06-24T00:43:39;35.55;32.68;37.98;;
69616;Laerm;56822;52.516;4.708;2023-06-24T00:43:50;35.68;33.58;38.04;;
69616;Laerm;56822;52.516;4.708;2023-06-24T00:44:00;35.80;32.32;38.97;;
69616;Laerm;56822;52.516;4.708;2023-06-24T00:44:11;33.56;31.67;35.71;;
69616;Laerm;56822;52.516;4.708;2023-06-24T00:44:22;36.19;33.01;38.52;;
69616;Laerm;56822;52.516;4.708;2023-06-24T00:44:32;34.97;32.66;37.00;;
69616;Laerm;56822;52.516;4.708;2023-06-24T00:44:42;35.05;32.85;37.50;;
69616;Laerm;56822;52.516;4.708;2023-06-24T00:44:53;38.33;34.35;45.61;;
69616;Laerm;56822;52.516;4.708;2023-06-24T00:45:03;40.50;35.59;45.83;;
69616;Laerm;56822;52.516;4.708;2023-06-24T00:45:15;40.08;34.68;46.34;;
69616;Laerm;56822;52.516;4.708;2023-06-24T00:45:28;41.10;33.43;47.35;;
69616;Laerm;56822;52.516;4.708;2023-06-24T00:45:40;37.60;34.54;41.00;;
69616;Laerm;56822;52.516;4.708;2023-06-24T00:45:51;36.89;32.88;41.28;;
69616;Laerm;56822;52.516;4.708;2023-06-24T00:46:03;37.65;32.56;44.76;;
69616;Laerm;56822;52.516;4.708;2023-06-24T00:46:13;41.59;36.00;47.70;;
69616;Laerm;56822;52.516;4.708;2023-06-24T00:46:27;39.09;35.80;44.63;;
69616;Laerm;56822;52.516;4.708;2023-06-24T00:46:37;38.41;35.68;42.15;;
69616;Laerm;56822;52.516;4.708;2023-06-24T00:46:50;40.22;36.67;46.06;;
69616;Laerm;56822;52.516;4.708;2023-06-24T00:47:00;42.87;37.39;49.62;;
69616;Laerm;56822;52.516;4.708;2023-06-24T00:47:12;43.88;39.02;48.44;;
69616;Laerm;56822;52.516;4.708;2023-06-24T00:47:22;41.66;36.95;49.34;;
69616;Laerm;56822;52.516;4.708;2023-06-24T00:47:33;41.91;37.94;48.54;;
69616;Laerm;56822;52.516;4.708;2023-06-24T00:47:44;49.13;44.99;52.84;;
69616;Laerm;56822;52.516;4.708;2023-06-24T00:47:55;49.43;45.57;52.59;;
69616;Laerm;56822;52.516;4.708;2023-06-24T00:48:06;49.54;46.17;52.94;;
69616;Laerm;56822;52.516;4.708;2023-06-24T00:48:16;47.90;40.62;53.76;;
69616;Laerm;56822;52.516;4.708;2023-06-24T00:48:27;41.01;35.45;48.00;;
69616;Laerm;56822;52.516;4.708;2023-06-24T00:48:37;37.21;34.23;40.24;;
69616;Laerm;56822;52.516;4.708;2023-06-24T00:48:47;34.94;31.81;38.20;;
69616;Laerm;56822;52.516;4.708;2023-06-24T00:48:58;34.20;31.63;40.23;;
69616;Laerm;56822;52.516;4.708;2023-06-24T00:49:08;34.45;31.96;36.91;;
69616;Laerm;56822;52.516;4.708;2023-06-24T00:49:18;34.23;31.91;36.46;;
69616;Laerm;56822;52.516;4.708;2023-06-24T00:49:28;35.65;33.01;38.96;;
69616;Laerm;56822;52.516;4.708;2023-06-24T00:49:39;36.79;34.19;39.44;;
69616;Laerm;56822;52.516;4.708;2023-06-24T00:49:50;37.17;35.03;40.97;;
69616;Laerm;56822;52.516;4.708;2023-06-24T00:50:01;37.66;34.79;40.33;;
69616;Laerm;56822;52.516;4.708;2023-06-24T00:50:11;35.85;33.53;38.76;;
69616;Laerm;56822;52.516;4.708;2023-06-24T00:50:22;34.90;31.93;39.03;;
69616;Laerm;56822;52.516;4.708;2023-06-24T00:50:32;34.40;31.66;38.04;;
69616;Laerm;56822;52.516;4.708;2023-06-24T00:50:43;34.38;32.20;39.57;;
69616;Laerm;56822;52.516;4.708;2023-06-24T00:50:55;35.74;32.72;40.68;;
69616;Laerm;56822;52.516;4.708;2023-06-24T00:51:08;35.56;31.72;46.29;;
69616;Laerm;56822;52.516;4.708;2023-06-24T00:51:19;35.48;31.94;38.82;;
69616;Laerm;56822;52.516;4.708;2023-06-24T00:51:31;37.11;33.77;40.14;;
69616;Laerm;56822;52.516;4.708;2023-06-24T00:51:42;34.93;32.60;37.26;;
69616;Laerm;56822;52.516;4.708;2023-06-24T00:51:57;33.70;31.86;35.43;;
69616;Laerm;56822;52.516;4.708;2023-06-24T00:52:11;34.46;32.09;37.05;;
69616;Laerm;56822;52.516;4.708;2023-06-24T00:52:25;34.89;31.58;39.20;;
69616;Laerm;56822;52.516;4.708;2023-06-24T00:52:35;32.50;30.15;35.22;;
69616;Laerm;56822;52.516;4.708;2023-06-24T00:52:48;33.90;30.23;39.02;;
69616;Laerm;56822;52.516;4.708;2023-06-24T00:52:59;35.24;31.86;42.21;;
69616;Laerm;56822;52.516;4.708;2023-06-24T00:53:09;36.77;32.04;44.01;;
69616;Laerm;56822;52.516;4.708;2023-06-24T00:53:21;37.72;34.38;41.69;;
69616;Laerm;56822;52.516;4.708;2023-06-24T00:53:34;36.46;32.21;40.14;;
69616;Laerm;56822;52.516;4.708;2023-06-24T00:53:45;34.09;31.82;36.85;;
69616;Laerm;56822;52.516;4.708;2023-06-24T00:53:55;34.34;31.95;37.26;;
69616;Laerm;56822;52.516;4.708;2023-06-24T00:54:06;34.28;32.21;36.92;;
69616;Laerm;56822;52.516;4.708;2023-06-24T00:54:17;32.52;29.61;35.31;;
69616;Laerm;56822;52.516;4.708;2023-06-24T00:54:27;31.37;29.60;33.25;;
69616;Laerm;56822;52.516;4.708;2023-06-24T00:54:44;39.25;30.40;57.85;;
69616;Laerm;56822;52.516;4.708;2023-06-24T00:54:54;34.13;31.38;49.28;;
69616;Laerm;56822;52.516;4.708;2023-06-24T00:55:05;32.73;30.38;34.77;;
69616;Laerm;56822;52.516;4.708;2023-06-24T00:55:17;33.69;30.19;38.88;;
69616;Laerm;56822;52.516;4.708;2023-06-24T00:55:27;34.92;31.95;41.81;;
69616;Laerm;56822;52.516;4.708;2023-06-24T00:55:39;37.20;32.41;43.53;;
69616;Laerm;56822;52.516;4.708;2023-06-24T00:55:49;44.02;34.90;49.71;;
69616;Laerm;56822;52.516;4.708;2023-06-24T00:55:59;40.98;31.87;48.54;;
69616;Laerm;56822;52.516;4.708;2023-06-24T00:56:12;34.90;31.79;42.10;;
69616;Laerm;56822;52.516;4.708;2023-06-24T00:56:34;34.96;31.48;39.14;;
69616;Laerm;56822;52.516;4.708;2023-06-24T00:56:45;33.71;31.20;37.62;;
69616;Laerm;56822;52.516;4.708;2023-06-24T00:56:55;33.62;30.94;37.19;;
69616;Laerm;56822;52.516;4.708;2023-06-24T00:57:06;34.13;31.66;36.46;;
69616;Laerm;56822;52.516;4.708;2023-06-24T00:57:17;35.44;33.14;38.21;;
69616;Laerm;56822;52.516;4.708;2023-06-24T00:57:27;35.04;32.81;37.64;;
69616;Laerm;56822;52.516;4.708;2023-06-24T00:57:42;36.89;33.86;39.88;;
69616;Laerm;56822;52.516;4.708;2023-06-24T00:57:52;34.73;32.40;37.12;;
69616;Laerm;56822;52.516;4.708;2023-06-24T00:58:03;35.31;33.07;38.10;;
69616;Laerm;56822;52.516;4.708;2023-06-24T00:58:13;35.63;32.71;37.95;;
69616;Laerm;56822;52.516;4.708;2023-06-24T00:58:26;34.23;32.04;36.65;;
69616;Laerm;56822;52.516;4.708;2023-06-24T00:58:36;35.58;33.30;38.17;;
69616;Laerm;56822;52.516;4.708;2023-06-24T00:58:49;35.32;32.17;38.71;;
69616;Laerm;56822;52.516;4.708;2023-06-24T00:59:01;39.62;31.72;52.19;;
69616;Laerm;56822;52.516;4.708;2023-06-24T00:59:13;38.87;35.10;42.51;;
69616;Laerm;56822;52.516;4.708;2023-06-24T00:59:24;35.24;32.58;39.12;;
69616;Laerm;56822;52.516;4.708;2023-06-24T00:59:39;34.11;32.01;37.90;;
69616;Laerm;56822;52.516;4.708;2023-06-24T00:59:50;32.61;30.45;34.81;;
69616;Laerm;56822;52.516;4.708;2023-06-24T01:00:04;35.88;30.96;40.04;;
69616;Laerm;56822;52.516;4.708;2023-06-24T01:00:20;35.52;31.48;40.64;;
69616;Laerm;56822;52.516;4.708;2023-06-24T01:00:31;36.03;33.06;40.21;;
69616;Laerm;56822;52.516;4.708;2023-06-24T01:00:44;41.72;34.74;48.09;;
69616;Laerm;56822;52.516;4.708;2023-06-24T01:00:56;42.34;36.16;49.04;;
69616;Laerm;56822;52.516;4.708;2023-06-24T01:01:07;43.27;37.68;48.52;;
69616;Laerm;56822;52.516;4.708;2023-06-24T01:01:19;42.93;37.08;48.32;;
69616;Laerm;56822;52.516;4.708;2023-06-24T01:01:32;40.76;36.53;44.97;;
69616;Laerm;56822;52.516;4.708;2023-06-24T01:01:43;49.29;44.12;53.18;;
69616;Laerm;56822;52.516;4.708;2023-06-24T01:01:55;49.58;42.97;53.55;;
69616;Laerm;56822;52.516;4.708;2023-06-24T01:02:06;46.67;43.39;49.78;;
69616;Laerm;56822;52.516;4.708;2023-06-24T01:02:16;42.98;36.10;48.39;;